Time,TemperatureF,DewpointF,PressureIn,WindDirection,WindDirectionDegrees,WindSpeedMPH,WindSpeedGustMPH,Humidity,HourlyPrecipIn,Conditions,Clouds,dailyrainin,SoftwareType,DateUTC
2013-06-18 00:03:00,66.6,62.3,29.90,SSE,154,0.0,0.0,86,0.00,,,0.00,Wunderground v.1.15,2013-06-18 05:03:00,
2013-06-18 00:09:00,66.4,62.1,29.90,SSE,154,0.0,0.0,86,0.00,,,0.00,Wunderground v.1.15,2013-06-18 05:09:00,
2013-06-18 00:14:00,66.1,61.5,29.90,SSE,154,0.0,0.0,85,0.00,,,0.00,Wunderground v.1.15,2013-06-18 05:14:00,
2013-06-18 00:20:00,65.6,61.3,29.90,SSE,154,0.0,0.0,86,0.00,,,0.00,Wunderground v.1.15,2013-06-18 05:20:00,
2013-06-18 00:25:00,65.2,60.9,29.90,SSE,154,0.0,0.0,86,0.00,,,0.00,Wunderground v.1.15,2013-06-18 05:25:00,
2013-06-18 00:30:00,64.8,61.2,29.90,SSE,154,0.0,0.0,88,0.00,,,0.00,Wunderground v.1.15,2013-06-18 05:30:00,
2013-06-18 00:36:00,64.7,61.1,29.90,SSE,154,0.0,0.0,88,0.00,,,0.00,Wunderground v.1.15,2013-06-18 05:36:00,
2013-06-18 00:41:00,64.3,60.7,29.90,SSE,154,0.0,0.0,88,0.00,,,0.00,Wunderground v.1.15,2013-06-18 05:41:00,
2013-06-18 00:47:00,64.0,60.7,29.91,SSE,154,0.0,0.0,89,0.00,,,0.00,Wunderground v.1.15,2013-06-18 05:47:00,
2013-06-18 00:52:00,63.9,60.6,29.91,SSE,154,0.0,0.0,89,0.00,,,0.00,Wunderground v.1.15,2013-06-18 05:52:00,
2013-06-18 00:58:00,63.2,59.9,29.91,SSE,154,0.0,0.0,89,0.00,,,0.00,Wunderground v.1.15,2013-06-18 05:58:00,
2013-06-18 01:03:00,62.9,59.6,29.91,SSE,154,0.0,0.0,89,0.00,,,0.00,Wunderground v.1.15,2013-06-18 06:03:00,
2013-06-18 01:09:00,62.6,59.3,29.91,SSE,154,0.0,0.0,89,0.00,,,0.00,Wunderground v.1.15,2013-06-18 06:09:00,
2013-06-18 01:15:00,62.3,59.3,29.91,SSE,154,0.0,0.0,90,0.00,,,0.00,Wunderground v.1.15,2013-06-18 06:15:00,
2013-06-18 01:20:00,62.1,59.1,29.93,SSE,154,0.0,0.0,90,0.00,,,0.00,Wunderground v.1.15,2013-06-18 06:20:00,
2013-06-18 01:26:00,62.0,59.3,29.93,SSE,154,0.0,0.0,91,0.00,,,0.00,Wunderground v.1.15,2013-06-18 06:26:00,
2013-06-18 01:32:00,61.6,58.9,29.93,SSE,154,0.0,0.0,91,0.00,,,0.00,Wunderground v.1.15,2013-06-18 06:32:00,
2013-06-18 01:37:00,61.3,58.7,29.93,SSE,154,0.0,0.0,91,0.00,,,0.00,Wunderground v.1.15,2013-06-18 06:37:00,
2013-06-18 01:43:00,61.3,59.0,29.93,SSE,154,0.0,0.0,92,0.00,,,0.00,Wunderground v.1.15,2013-06-18 06:43:00,
2013-06-18 01:48:00,61.2,58.9,29.93,SSE,154,0.0,0.0,92,0.00,,,0.00,Wunderground v.1.15,2013-06-18 06:48:00,
2013-06-18 01:54:00,61.2,58.9,29.93,SSE,154,0.0,0.0,92,0.00,,,0.00,Wunderground v.1.15,2013-06-18 06:54:00,
2013-06-18 01:59:00,61.2,59.2,29.93,SSE,154,0.0,0.0,93,0.00,,,0.00,Wunderground v.1.15,2013-06-18 06:59:00,
2013-06-18 02:04:00,60.9,58.6,29.94,SSE,154,0.0,0.0,92,0.00,,,0.00,Wunderground v.1.15,2013-06-18 07:04:00,
2013-06-18 02:09:00,60.7,58.7,29.94,SSE,154,0.0,0.0,93,0.00,,,0.00,Wunderground v.1.15,2013-06-18 07:09:00,
2013-06-18 02:14:00,60.7,58.7,29.94,SSE,154,0.0,0.0,93,0.00,,,0.00,Wunderground v.1.15,2013-06-18 07:14:00,
2013-06-18 02:19:00,60.5,58.5,29.93,SSE,154,0.0,0.0,93,0.00,,,0.00,Wunderground v.1.15,2013-06-18 07:19:00,
2013-06-18 02:24:00,60.4,58.4,29.93,SSE,154,0.0,0.0,93,0.00,,,0.00,Wunderground v.1.15,2013-06-18 07:24:00,
2013-06-18 02:29:00,59.9,57.9,29.93,SSE,154,0.0,0.0,93,0.00,,,0.00,Wunderground v.1.15,2013-06-18 07:29:00,
2013-06-18 02:34:00,59.8,57.8,29.93,SSE,154,0.0,0.0,93,0.00,,,0.00,Wunderground v.1.15,2013-06-18 07:34:00,
2013-06-18 02:39:00,59.6,57.6,29.93,SSE,154,0.0,0.0,93,0.00,,,0.00,Wunderground v.1.15,2013-06-18 07:39:00,
2013-06-18 02:44:00,59.6,57.6,29.93,SSE,154,0.0,0.0,93,0.00,,,0.00,Wunderground v.1.15,2013-06-18 07:44:00,
2013-06-18 02:49:00,59.3,57.3,29.93,SSE,154,0.0,0.0,93,0.00,,,0.00,Wunderground v.1.15,2013-06-18 07:49:00,
2013-06-18 02:54:00,59.3,57.3,29.93,SSE,154,0.0,0.0,93,0.00,,,0.00,Wunderground v.1.15,2013-06-18 07:54:00,
2013-06-18 02:59:00,59.2,57.2,29.93,SSE,154,0.0,0.0,93,0.00,,,0.00,Wunderground v.1.15,2013-06-18 07:59:00,
2013-06-18 03:04:00,58.9,56.9,29.92,SSE,154,0.0,0.0,93,0.00,,,0.00,Wunderground v.1.15,2013-06-18 08:04:00,
2013-06-18 03:09:00,58.9,57.2,29.92,SSE,154,0.0,0.0,94,0.00,,,0.00,Wunderground v.1.15,2013-06-18 08:09:00,
2013-06-18 03:14:00,58.9,57.2,29.92,SSE,154,0.0,0.0,94,0.00,,,0.00,Wunderground v.1.15,2013-06-18 08:14:00,
2013-06-18 03:19:00,58.9,57.2,29.92,SSE,154,0.0,0.0,94,0.00,,,0.00,Wunderground v.1.15,2013-06-18 08:19:00,
2013-06-18 03:24:00,58.7,57.0,29.92,SSE,154,0.0,0.0,94,0.00,,,0.00,Wunderground v.1.15,2013-06-18 08:24:00,
2013-06-18 03:29:00,58.6,56.9,29.92,SSE,154,0.0,0.0,94,0.00,,,0.00,Wunderground v.1.15,2013-06-18 08:29:00,
2013-06-18 03:34:00,58.6,56.9,29.92,SSE,154,0.0,0.0,94,0.00,,,0.00,Wunderground v.1.15,2013-06-18 08:34:00,
2013-06-18 03:39:00,58.4,56.7,29.92,SSE,154,0.0,0.0,94,0.00,,,0.00,Wunderground v.1.15,2013-06-18 08:39:00,
2013-06-18 03:44:00,58.4,56.7,29.92,SSE,154,0.0,0.0,94,0.00,,,0.00,Wunderground v.1.15,2013-06-18 08:44:00,
2013-06-18 03:49:00,58.4,56.7,29.93,SSE,154,0.0,0.0,94,0.00,,,0.00,Wunderground v.1.15,2013-06-18 08:49:00,
2013-06-18 03:54:00,58.3,56.6,29.93,SSE,154,0.0,0.0,94,0.00,,,0.00,Wunderground v.1.15,2013-06-18 08:54:00,
2013-06-18 03:59:00,58.3,56.6,29.93,SSE,154,0.0,0.0,94,0.00,,,0.00,Wunderground v.1.15,2013-06-18 08:59:00,
2013-06-18 04:04:00,58.0,56.3,29.93,SSE,154,0.0,0.0,94,0.00,,,0.00,Wunderground v.1.15,2013-06-18 09:04:00,
2013-06-18 04:09:00,57.8,56.1,29.93,SSE,154,0.0,0.0,94,0.00,,,0.00,Wunderground v.1.15,2013-06-18 09:09:00,
2013-06-18 04:14:00,57.6,55.9,29.93,SSE,154,0.0,0.0,94,0.00,,,0.00,Wunderground v.1.15,2013-06-18 09:14:00,
2013-06-18 04:20:00,57.6,55.9,29.93,SSE,154,0.0,0.0,94,0.00,,,0.00,Wunderground v.1.15,2013-06-18 09:20:00,
2013-06-18 04:25:00,57.6,55.9,29.93,SSE,154,0.0,0.0,94,0.00,,,0.00,Wunderground v.1.15,2013-06-18 09:25:00,
2013-06-18 04:31:00,57.6,55.9,29.93,SSE,154,0.0,0.0,94,0.00,,,0.00,Wunderground v.1.15,2013-06-18 09:31:00,
2013-06-18 04:36:00,57.6,55.9,29.93,SSE,154,0.0,0.0,94,0.00,,,0.00,Wunderground v.1.15,2013-06-18 09:36:00,
2013-06-18 04:41:00,57.6,55.9,29.93,SSE,154,0.0,0.0,94,0.00,,,0.00,Wunderground v.1.15,2013-06-18 09:41:00,
2013-06-18 04:46:00,57.2,55.5,29.93,SSE,154,0.0,0.0,94,0.00,,,0.00,Wunderground v.1.15,2013-06-18 09:46:00,
2013-06-18 04:51:00,57.0,55.3,29.93,SSE,154,0.0,0.0,94,0.00,,,0.00,Wunderground v.1.15,2013-06-18 09:51:00,
2013-06-18 04:56:00,57.0,55.3,29.93,SSE,154,0.0,0.0,94,0.00,,,0.00,Wunderground v.1.15,2013-06-18 09:56:00,
2013-06-18 05:01:00,56.9,55.2,29.93,SSE,154,0.0,0.0,94,0.00,,,0.00,Wunderground v.1.15,2013-06-18 10:01:00,
2013-06-18 05:06:00,56.7,55.0,29.94,SSE,154,0.0,0.0,94,0.00,,,0.00,Wunderground v.1.15,2013-06-18 10:06:00,
2013-06-18 05:11:00,56.7,55.3,29.94,SSE,154,0.0,0.0,95,0.00,,,0.00,Wunderground v.1.15,2013-06-18 10:11:00,
2013-06-18 05:16:00,56.7,55.3,29.95,SSE,154,0.0,0.0,95,0.00,,,0.00,Wunderground v.1.15,2013-06-18 10:16:00,
2013-06-18 05:21:00,56.9,55.5,29.95,SSE,154,0.0,0.0,95,0.00,,,0.00,Wunderground v.1.15,2013-06-18 10:21:00,
2013-06-18 05:27:00,56.9,55.5,29.95,SSE,154,0.0,0.0,95,0.00,,,0.00,Wunderground v.1.15,2013-06-18 10:27:00,
2013-06-18 05:31:00,56.9,55.5,29.95,SSE,154,0.0,0.0,95,0.00,,,0.00,Wunderground v.1.15,2013-06-18 10:31:00,
2013-06-18 05:37:00,56.9,55.5,29.95,SSE,154,0.0,0.0,95,0.00,,,0.00,Wunderground v.1.15,2013-06-18 10:37:00,
2013-06-18 05:42:00,57.0,55.6,29.95,SSE,154,0.0,0.0,95,0.00,,,0.00,Wunderground v.1.15,2013-06-18 10:42:00,
2013-06-18 05:47:00,56.7,55.3,29.96,SSE,154,0.0,0.0,95,0.00,,,0.00,Wunderground v.1.15,2013-06-18 10:47:00,
2013-06-18 05:52:00,56.6,55.2,29.96,SSE,154,0.0,0.0,95,0.00,,,0.00,Wunderground v.1.15,2013-06-18 10:52:00,
2013-06-18 05:57:00,56.6,55.2,29.96,SSE,154,0.0,0.0,95,0.00,,,0.00,Wunderground v.1.15,2013-06-18 10:57:00,
2013-06-18 06:02:00,56.5,55.1,29.96,SSE,154,0.0,0.0,95,0.00,,,0.00,Wunderground v.1.15,2013-06-18 11:02:00,
2013-06-18 06:07:00,56.5,55.1,29.96,SSE,154,0.0,0.0,95,0.00,,,0.00,Wunderground v.1.15,2013-06-18 11:07:00,
2013-06-18 06:12:00,56.5,55.1,29.96,SSE,154,0.0,0.0,95,0.00,,,0.00,Wunderground v.1.15,2013-06-18 11:12:00,
2013-06-18 06:17:00,56.5,55.1,29.97,SSE,154,0.0,0.0,95,0.00,,,0.00,Wunderground v.1.15,2013-06-18 11:17:00,
2013-06-18 06:22:00,56.9,55.8,29.97,SSE,154,0.0,0.0,96,0.00,,,0.00,Wunderground v.1.15,2013-06-18 11:22:00,
2013-06-18 06:27:00,57.3,56.2,29.97,SSE,154,0.0,0.0,96,0.00,,,0.00,Wunderground v.1.15,2013-06-18 11:27:00,
2013-06-18 06:33:00,57.6,56.5,29.97,SSE,154,0.0,0.0,96,0.00,,,0.00,Wunderground v.1.15,2013-06-18 11:33:00,
2013-06-18 06:38:00,57.8,56.7,29.97,SSE,154,0.0,0.0,96,0.00,,,0.00,Wunderground v.1.15,2013-06-18 11:38:00,
2013-06-18 06:43:00,58.0,56.9,29.97,SSE,154,0.0,0.0,96,0.00,,,0.00,Wunderground v.1.15,2013-06-18 11:43:00,
2013-06-18 06:48:00,58.3,57.2,29.97,SSE,154,0.0,0.0,96,0.00,,,0.00,Wunderground v.1.15,2013-06-18 11:48:00,
2013-06-18 06:53:00,58.3,57.2,29.97,SSE,154,0.0,0.0,96,0.00,,,0.00,Wunderground v.1.15,2013-06-18 11:53:00,
2013-06-18 06:58:00,58.6,57.5,29.97,SSE,154,0.0,0.0,96,0.00,,,0.00,Wunderground v.1.15,2013-06-18 11:58:00,
2013-06-18 07:03:00,59.0,57.9,29.97,SSE,154,0.0,0.0,96,0.00,,,0.00,Wunderground v.1.15,2013-06-18 12:03:00,
2013-06-18 07:08:00,59.5,58.4,29.97,SSE,154,0.0,0.0,96,0.00,,,0.00,Wunderground v.1.15,2013-06-18 12:08:00,
2013-06-18 07:13:00,60.1,59.0,29.97,SSE,154,0.0,0.0,96,0.00,,,0.00,Wunderground v.1.15,2013-06-18 12:13:00,
2013-06-18 07:18:00,60.7,59.6,29.97,SSE,154,0.0,0.0,96,0.00,,,0.00,Wunderground v.1.15,2013-06-18 12:18:00,
2013-06-18 07:23:00,61.2,60.1,29.97,SSE,154,0.0,0.0,96,0.00,,,0.00,Wunderground v.1.15,2013-06-18 12:23:00,
2013-06-18 07:28:00,61.5,60.3,29.97,SSE,154,0.0,0.0,96,0.00,,,0.00,Wunderground v.1.15,2013-06-18 12:28:00,
2013-06-18 07:33:00,62.1,61.2,29.96,SSE,154,0.0,0.0,97,0.00,,,0.00,Wunderground v.1.15,2013-06-18 12:33:00,
2013-06-18 07:38:00,62.7,61.8,29.96,SSE,154,0.0,0.0,97,0.00,,,0.00,Wunderground v.1.15,2013-06-18 12:38:00,
2013-06-18 07:43:00,63.2,62.3,29.96,SSE,154,0.0,0.0,97,0.00,,,0.00,Wunderground v.1.15,2013-06-18 12:43:00,
2013-06-18 07:48:00,63.7,62.8,29.96,SSE,154,0.0,0.0,97,0.00,,,0.00,Wunderground v.1.15,2013-06-18 12:48:00,
2013-06-18 07:53:00,64.2,63.3,29.96,SSE,154,0.0,0.0,97,0.00,,,0.00,Wunderground v.1.15,2013-06-18 12:53:00,
2013-06-18 07:58:00,65.0,64.1,29.96,SSE,154,0.0,0.0,97,0.00,,,0.00,Wunderground v.1.15,2013-06-18 12:58:00,
2013-06-18 08:03:00,65.5,64.6,29.95,SSE,154,0.0,2.0,97,0.00,,,0.00,Wunderground v.1.15,2013-06-18 13:03:00,
2013-06-18 08:08:00,65.8,64.9,29.95,SSE,154,0.0,3.0,97,0.00,,,0.00,Wunderground v.1.15,2013-06-18 13:08:00,
2013-06-18 08:13:00,66.1,65.2,29.95,North,350,2.0,3.0,97,0.00,,,0.00,Wunderground v.1.15,2013-06-18 13:13:00,
2013-06-18 08:18:00,66.1,65.2,29.96,North,350,0.0,3.0,97,0.00,,,0.00,Wunderground v.1.15,2013-06-18 13:18:00,
2013-06-18 08:23:00,66.4,65.2,29.96,North,350,1.0,4.0,96,0.00,,,0.00,Wunderground v.1.15,2013-06-18 13:23:00,
2013-06-18 08:28:00,66.8,65.6,29.96,North,350,0.0,4.0,96,0.00,,,0.00,Wunderground v.1.15,2013-06-18 13:28:00,
2013-06-18 08:33:00,67.1,65.9,29.96,North,350,1.0,3.0,96,0.00,,,0.00,Wunderground v.1.15,2013-06-18 13:33:00,
2013-06-18 08:38:00,67.4,66.2,29.96,North,350,3.0,4.0,96,0.00,,,0.00,Wunderground v.1.15,2013-06-18 13:38:00,
2013-06-18 08:44:00,67.9,66.7,29.96,North,350,0.0,3.0,96,0.00,,,0.00,Wunderground v.1.15,2013-06-18 13:44:00,
2013-06-18 08:49:00,68.4,66.9,29.97,North,350,0.0,3.0,95,0.00,,,0.00,Wunderground v.1.15,2013-06-18 13:49:00,
2013-06-18 08:54:00,68.6,67.1,29.97,North,350,0.0,2.0,95,0.00,,,0.00,Wunderground v.1.15,2013-06-18 13:54:00,
2013-06-18 08:59:00,68.9,67.1,29.97,North,350,0.0,2.0,94,0.00,,,0.00,Wunderground v.1.15,2013-06-18 13:59:00,
2013-06-18 09:04:00,69.3,67.2,29.97,North,350,0.0,2.0,93,0.00,,,0.00,Wunderground v.1.15,2013-06-18 14:04:00,
2013-06-18 09:09:00,69.6,67.2,29.97,North,350,0.0,2.0,92,0.00,,,0.00,Wunderground v.1.15,2013-06-18 14:09:00,
2013-06-18 09:14:00,70.3,67.5,29.97,North,350,0.0,2.0,91,0.00,,,0.00,Wunderground v.1.15,2013-06-18 14:14:00,
2013-06-18 09:20:00,70.6,67.2,29.97,North,350,0.0,2.0,89,0.00,,,0.00,Wunderground v.1.15,2013-06-18 14:20:00,
2013-06-18 09:25:00,71.1,66.7,29.97,North,350,0.0,0.0,86,0.00,,,0.00,Wunderground v.1.15,2013-06-18 14:25:00,
2013-06-18 09:31:00,71.6,66.8,29.97,North,350,0.0,0.0,85,0.00,,,0.00,Wunderground v.1.15,2013-06-18 14:31:00,
2013-06-18 09:36:00,72.1,66.3,29.98,North,350,0.0,4.0,82,0.00,,,0.00,Wunderground v.1.15,2013-06-18 14:36:00,
2013-06-18 09:41:00,72.7,65.8,29.98,North,350,2.0,3.0,79,0.00,,,0.00,Wunderground v.1.15,2013-06-18 14:41:00,
2013-06-18 09:46:00,73.0,65.7,29.98,North,350,0.0,3.0,78,0.00,,,0.00,Wunderground v.1.15,2013-06-18 14:46:00,
2013-06-18 09:51:00,73.2,64.4,29.98,NNE,17,0.0,2.0,74,0.00,,,0.00,Wunderground v.1.15,2013-06-18 14:51:00,
2013-06-18 09:56:00,73.7,64.9,29.98,NNE,17,0.0,2.0,74,0.00,,,0.00,Wunderground v.1.15,2013-06-18 14:56:00,
2013-06-18 10:01:00,74.4,66.0,29.98,North,349,2.0,4.0,75,0.00,,,0.00,Wunderground v.1.15,2013-06-18 15:01:00,
2013-06-18 10:06:00,74.9,66.1,29.98,NNW,348,0.0,5.0,74,0.00,,,0.00,Wunderground v.1.15,2013-06-18 15:06:00,
2013-06-18 10:11:00,74.7,65.9,29.98,NNW,348,0.0,2.0,74,0.00,,,0.00,Wunderground v.1.15,2013-06-18 15:11:00,
2013-06-18 10:16:00,74.7,66.2,29.98,NNW,348,0.0,3.0,75,0.00,,,0.00,Wunderground v.1.15,2013-06-18 15:16:00,
2013-06-18 10:21:00,74.9,66.1,29.98,North,349,1.0,3.0,74,0.00,,,0.00,Wunderground v.1.15,2013-06-18 15:21:00,
2013-06-18 10:26:00,75.1,66.6,29.98,NNW,344,3.0,6.0,75,0.00,,,0.00,Wunderground v.1.15,2013-06-18 15:26:00,
2013-06-18 10:31:00,75.4,66.9,29.98,NNW,344,0.0,1.0,75,0.00,,,0.00,Wunderground v.1.15,2013-06-18 15:31:00,
2013-06-18 10:36:00,75.8,66.5,29.97,ESE,113,0.0,3.0,73,0.00,,,0.00,Wunderground v.1.15,2013-06-18 15:36:00,
2013-06-18 10:41:00,76.5,67.6,29.97,NNW,334,0.0,4.0,74,0.00,,,0.00,Wunderground v.1.15,2013-06-18 15:41:00,
2013-06-18 10:46:00,77.0,66.9,29.97,NNW,348,3.0,4.0,71,0.00,,,0.00,Wunderground v.1.15,2013-06-18 15:46:00,
2013-06-18 10:51:00,77.0,66.5,29.97,NNE,15,0.0,3.0,70,0.00,,,0.00,Wunderground v.1.15,2013-06-18 15:51:00,
2013-06-18 10:57:00,77.6,68.3,29.97,NNW,342,2.0,4.0,73,0.00,,,0.00,Wunderground v.1.15,2013-06-18 15:57:00,
2013-06-18 11:02:00,77.9,67.7,29.97,NNE,23,0.0,3.0,71,0.00,,,0.00,Wunderground v.1.15,2013-06-18 16:02:00,
2013-06-18 11:07:00,78.3,68.1,29.97,NNW,340,0.0,6.0,71,0.00,,,0.00,Wunderground v.1.15,2013-06-18 16:07:00,
2013-06-18 11:12:00,78.6,68.0,29.97,NNW,347,0.0,7.0,70,0.00,,,0.00,Wunderground v.1.15,2013-06-18 16:12:00,
2013-06-18 11:17:00,78.8,66.5,29.97,North,355,0.0,9.0,66,0.00,,,0.00,Wunderground v.1.15,2013-06-18 16:17:00,
2013-06-18 11:22:00,78.8,66.5,29.97,NNW,348,1.0,7.0,66,0.00,,,0.00,Wunderground v.1.15,2013-06-18 16:22:00,
2013-06-18 11:27:00,78.8,67.3,29.97,NNW,344,4.0,7.0,68,0.00,,,0.00,Wunderground v.1.15,2013-06-18 16:27:00,
2013-06-18 11:32:00,79.0,66.2,29.97,NNW,340,0.0,7.0,65,0.00,,,0.00,Wunderground v.1.15,2013-06-18 16:32:00,
2013-06-18 11:37:00,79.4,66.2,29.97,North,350,3.0,7.0,64,0.00,,,0.00,Wunderground v.1.15,2013-06-18 16:37:00,
2013-06-18 11:42:00,79.8,67.4,29.97,NNW,348,2.0,4.0,66,0.00,,,0.00,Wunderground v.1.15,2013-06-18 16:42:00,
2013-06-18 11:47:00,79.9,68.0,29.97,NNE,24,1.0,4.0,67,0.00,,,0.00,Wunderground v.1.15,2013-06-18 16:47:00,
2013-06-18 11:52:00,80.1,66.8,29.97,NNW,346,0.0,4.0,64,0.00,,,0.00,Wunderground v.1.15,2013-06-18 16:52:00,
2013-06-18 11:57:00,80.5,67.2,29.97,NNW,340,5.0,7.0,64,0.00,,,0.00,Wunderground v.1.15,2013-06-18 16:57:00,
2013-06-18 12:02:00,80.5,65.3,29.97,NNW,348,0.0,5.0,60,0.00,,,0.00,Wunderground v.1.15,2013-06-18 17:02:00,
2013-06-18 12:07:00,80.7,66.9,29.97,North,350,0.0,6.0,63,0.00,,,0.00,Wunderground v.1.15,2013-06-18 17:07:00,
2013-06-18 12:12:00,80.9,66.2,29.97,NNW,346,0.0,5.0,61,0.00,,,0.00,Wunderground v.1.15,2013-06-18 17:12:00,
2013-06-18 12:17:00,81.1,66.4,29.97,NNW,346,0.0,5.0,61,0.00,,,0.00,Wunderground v.1.15,2013-06-18 17:17:00,
2013-06-18 12:22:00,81.6,65.9,29.97,NNW,346,0.0,1.0,59,0.00,,,0.00,Wunderground v.1.15,2013-06-18 17:22:00,
2013-06-18 12:27:00,81.4,64.7,29.97,North,350,5.0,10.0,57,0.00,,,0.00,Wunderground v.1.15,2013-06-18 17:27:00,
2013-06-18 12:33:00,81.2,66.5,29.97,NNW,340,3.0,5.0,61,0.00,,,0.00,Wunderground v.1.15,2013-06-18 17:33:00,
2013-06-18 12:38:00,81.2,65.5,29.97,NNW,341,0.0,5.0,59,0.00,,,0.00,Wunderground v.1.15,2013-06-18 17:38:00,
2013-06-18 12:43:00,81.6,66.8,29.97,NNW,341,0.0,2.0,61,0.00,,,0.00,Wunderground v.1.15,2013-06-18 17:43:00,
2013-06-18 12:48:00,82.0,64.2,29.97,NNW,341,0.0,2.0,55,0.00,,,0.00,Wunderground v.1.15,2013-06-18 17:48:00,
2013-06-18 12:53:00,82.2,66.4,29.97,NNW,341,0.0,4.0,59,0.00,,,0.00,Wunderground v.1.15,2013-06-18 17:53:00,
2013-06-18 12:58:00,82.2,66.4,29.97,NNW,340,3.0,5.0,59,0.00,,,0.00,Wunderground v.1.15,2013-06-18 17:58:00,
2013-06-18 13:03:00,82.6,66.8,29.98,North,5,2.0,2.0,59,0.00,,,0.00,Wunderground v.1.15,2013-06-18 18:03:00,
2013-06-18 13:08:00,82.6,66.3,29.98,NNW,348,0.0,4.0,58,0.00,,,0.00,Wunderground v.1.15,2013-06-18 18:08:00,
2013-06-18 13:13:00,82.8,65.0,29.98,North,360,0.0,2.0,55,0.00,,,0.00,Wunderground v.1.15,2013-06-18 18:13:00,
2013-06-18 13:18:00,83.0,67.2,29.97,NW,324,2.0,4.0,59,0.00,,,0.00,Wunderground v.1.15,2013-06-18 18:18:00,
2013-06-18 13:23:00,83.0,65.7,29.97,NNE,15,0.0,2.0,56,0.00,,,0.00,Wunderground v.1.15,2013-06-18 18:23:00,
2013-06-18 13:28:00,82.8,65.0,29.97,NNW,335,7.0,7.0,55,0.00,,,0.00,Wunderground v.1.15,2013-06-18 18:28:00,
2013-06-18 13:33:00,82.8,66.5,29.97,NNW,343,0.0,3.0,58,0.00,,,0.00,Wunderground v.1.15,2013-06-18 18:33:00,
2013-06-18 13:38:00,83.0,65.2,29.97,NNW,344,0.0,4.0,55,0.00,,,0.00,Wunderground v.1.15,2013-06-18 18:38:00,
2013-06-18 13:43:00,83.2,65.4,29.97,NNW,347,0.0,1.0,55,0.00,,,0.00,Wunderground v.1.15,2013-06-18 18:43:00,
2013-06-18 13:48:00,83.6,66.8,29.97,NNW,347,0.0,1.0,57,0.00,,,0.00,Wunderground v.1.15,2013-06-18 18:48:00,
2013-06-18 13:53:00,84.0,66.1,29.97,NNW,347,0.0,1.0,55,0.00,,,0.00,Wunderground v.1.15,2013-06-18 18:53:00,
2013-06-18 13:58:00,84.1,65.7,29.97,NNW,347,0.0,4.0,54,0.00,,,0.00,Wunderground v.1.15,2013-06-18 18:58:00,
2013-06-18 14:03:00,83.8,64.8,29.97,NNW,347,1.0,3.0,53,0.00,,,0.00,Wunderground v.1.15,2013-06-18 19:03:00,
2013-06-18 14:08:00,83.4,67.6,29.97,NNW,347,0.0,3.0,59,0.00,,,0.00,Wunderground v.1.15,2013-06-18 19:08:00,
2013-06-18 14:13:00,83.4,65.0,29.97,NNW,347,0.0,3.0,54,0.00,,,0.00,Wunderground v.1.15,2013-06-18 19:13:00,
2013-06-18 14:18:00,83.8,66.9,29.96,NNW,347,0.0,3.0,57,0.00,,,0.00,Wunderground v.1.15,2013-06-18 19:18:00,
2013-06-18 14:23:00,84.0,67.6,29.96,NNW,347,1.0,2.0,58,0.00,,,0.00,Wunderground v.1.15,2013-06-18 19:23:00,
2013-06-18 14:28:00,84.3,67.4,29.96,NNW,347,0.0,3.0,57,0.00,,,0.00,Wunderground v.1.15,2013-06-18 19:28:00,
2013-06-18 14:33:00,84.7,66.7,29.96,NNW,347,0.0,1.0,55,0.00,,,0.00,Wunderground v.1.15,2013-06-18 19:33:00,
2013-06-18 14:38:00,84.7,65.1,29.96,NNW,347,0.0,1.0,52,0.00,,,0.00,Wunderground v.1.15,2013-06-18 19:38:00,
2013-06-18 14:43:00,84.7,66.2,29.96,NNW,347,0.0,3.0,54,0.00,,,0.00,Wunderground v.1.15,2013-06-18 19:43:00,
2013-06-18 14:48:00,84.5,64.9,29.96,NW,304,0.0,3.0,52,0.00,,,0.00,Wunderground v.1.15,2013-06-18 19:48:00,
2013-06-18 14:53:00,84.3,65.8,29.96,NW,313,0.0,1.0,54,0.00,,,0.00,Wunderground v.1.15,2013-06-18 19:53:00,
2013-06-18 14:58:00,84.1,67.2,29.96,NW,313,0.0,1.0,57,0.00,,,0.00,Wunderground v.1.15,2013-06-18 19:58:00,
2013-06-18 15:03:00,83.8,65.9,29.95,NW,313,0.0,0.0,55,0.00,,,0.00,Wunderground v.1.15,2013-06-18 20:03:00,
2013-06-18 15:08:00,83.8,65.9,29.95,West,281,0.0,2.0,55,0.00,,,0.00,Wunderground v.1.15,2013-06-18 20:08:00,
2013-06-18 15:13:00,83.8,66.4,29.95,West,281,0.0,0.0,56,0.00,,,0.00,Wunderground v.1.15,2013-06-18 20:13:00,
2013-06-18 15:18:00,83.6,64.1,29.95,West,281,0.0,1.0,52,0.00,,,0.00,Wunderground v.1.15,2013-06-18 20:18:00,
2013-06-18 15:23:00,83.6,66.8,29.95,West,281,0.0,0.0,57,0.00,,,0.00,Wunderground v.1.15,2013-06-18 20:23:00,
2013-06-18 15:28:00,83.6,65.7,29.95,West,281,0.0,1.0,55,0.00,,,0.00,Wunderground v.1.15,2013-06-18 20:28:00,
2013-06-18 15:33:00,83.8,66.4,29.93,West,281,1.0,1.0,56,0.00,,,0.00,Wunderground v.1.15,2013-06-18 20:33:00,
2013-06-18 15:38:00,83.6,64.1,29.93,West,281,0.0,1.0,52,0.00,,,0.00,Wunderground v.1.15,2013-06-18 20:38:00,
2013-06-18 15:43:00,83.6,65.7,29.93,West,281,0.0,0.0,55,0.00,,,0.00,Wunderground v.1.15,2013-06-18 20:43:00,
2013-06-18 15:48:00,83.6,64.7,29.93,West,281,0.0,0.0,53,0.00,,,0.00,Wunderground v.1.15,2013-06-18 20:48:00,
2013-06-18 15:53:00,83.6,63.6,29.93,West,281,0.0,1.0,51,0.00,,,0.00,Wunderground v.1.15,2013-06-18 20:53:00,
2013-06-18 15:58:00,83.4,64.5,29.93,West,281,1.0,3.0,53,0.00,,,0.00,Wunderground v.1.15,2013-06-18 20:58:00,
2013-06-18 16:03:00,83.4,66.1,29.92,West,281,0.0,0.0,56,0.00,,,0.00,Wunderground v.1.15,2013-06-18 21:03:00,
2013-06-18 16:08:00,83.2,64.8,29.92,West,281,0.0,1.0,54,0.00,,,0.00,Wunderground v.1.15,2013-06-18 21:08:00,
2013-06-18 16:13:00,83.4,66.1,29.92,West,281,0.0,0.0,56,0.00,,,0.00,Wunderground v.1.15,2013-06-18 21:13:00,
2013-06-18 16:18:00,83.4,65.5,29.92,West,281,0.0,0.0,55,0.00,,,0.00,Wunderground v.1.15,2013-06-18 21:18:00,
2013-06-18 16:23:00,83.0,63.6,29.92,West,281,0.0,0.0,52,0.00,,,0.00,Wunderground v.1.15,2013-06-18 21:23:00,
2013-06-18 16:28:00,82.8,63.4,29.92,WNW,282,0.0,2.0,52,0.00,,,0.00,Wunderground v.1.15,2013-06-18 21:28:00,
2013-06-18 16:33:00,82.4,63.0,29.92,WNW,282,0.0,1.0,52,0.00,,,0.00,Wunderground v.1.15,2013-06-18 21:33:00,
2013-06-18 16:38:00,82.0,63.2,29.92,WNW,282,0.0,1.0,53,0.00,,,0.00,Wunderground v.1.15,2013-06-18 21:38:00,
2013-06-18 16:43:00,82.2,64.4,29.92,NNW,339,0.0,5.0,55,0.00,,,0.00,Wunderground v.1.15,2013-06-18 21:43:00,
2013-06-18 16:49:00,82.4,63.0,29.93,NNW,339,0.0,5.0,52,0.00,,,0.00,Wunderground v.1.15,2013-06-18 21:49:00,
2013-06-18 16:54:00,82.4,63.0,29.93,NNW,339,0.0,4.0,52,0.00,,,0.00,Wunderground v.1.15,2013-06-18 21:54:00,
2013-06-18 16:59:00,82.4,65.1,29.93,NNW,339,0.0,4.0,56,0.00,,,0.00,Wunderground v.1.15,2013-06-18 21:59:00,
2013-06-18 17:04:00,82.6,63.7,29.93,NNW,339,0.0,0.0,53,0.00,,,0.00,Wunderground v.1.15,2013-06-18 22:04:00,
2013-06-18 17:09:00,83.0,65.7,29.93,NNW,339,0.0,0.0,56,0.00,,,0.00,Wunderground v.1.15,2013-06-18 22:09:00,
2013-06-18 17:14:00,83.2,62.6,29.93,NNW,339,0.0,0.0,50,0.00,,,0.00,Wunderground v.1.15,2013-06-18 22:14:00,
2013-06-18 17:19:00,83.4,64.5,29.93,NNW,339,0.0,0.0,53,0.00,,,0.00,Wunderground v.1.15,2013-06-18 22:19:00,
2013-06-18 17:24:00,82.8,63.9,29.93,NNW,345,1.0,3.0,53,0.00,,,0.00,Wunderground v.1.15,2013-06-18 22:24:00,
2013-06-18 17:29:00,82.4,65.6,29.93,NNW,345,0.0,3.0,57,0.00,,,0.00,Wunderground v.1.15,2013-06-18 22:29:00,
2013-06-18 17:34:00,82.2,66.9,29.93,NNW,345,0.0,0.0,60,0.00,,,0.00,Wunderground v.1.15,2013-06-18 22:34:00,
2013-06-18 17:39:00,81.8,67.0,29.93,NNW,345,0.0,0.0,61,0.00,,,0.00,Wunderground v.1.15,2013-06-18 22:39:00,
2013-06-18 17:44:00,81.2,65.0,29.93,NNW,345,0.0,0.0,58,0.00,,,0.00,Wunderground v.1.15,2013-06-18 22:44:00,
2013-06-18 17:49:00,80.7,64.5,29.93,North,360,3.0,5.0,58,0.00,,,0.00,Wunderground v.1.15,2013-06-18 22:49:00,
2013-06-18 17:54:00,79.2,63.1,29.93,NNW,343,0.0,6.0,58,0.00,,,0.00,Wunderground v.1.15,2013-06-18 22:54:00,
2013-06-18 17:59:00,77.9,62.9,29.93,North,11,4.0,6.0,60,0.00,,,0.00,Wunderground v.1.15,2013-06-18 22:59:00,
2013-06-18 18:04:00,76.1,61.2,29.94,NNW,340,2.0,5.0,60,0.00,,,0.00,Wunderground v.1.15,2013-06-18 23:04:00,
2013-06-18 18:09:00,74.9,61.5,29.94,North,5,0.0,5.0,63,0.00,,,0.00,Wunderground v.1.15,2013-06-18 23:09:00,
2013-06-18 18:14:00,74.4,61.9,29.94,North,5,0.0,2.0,65,0.00,,,0.00,Wunderground v.1.15,2013-06-18 23:14:00,
2013-06-18 18:19:00,74.0,62.3,29.95,North,5,0.0,2.0,67,0.00,,,0.00,Wunderground v.1.15,2013-06-18 23:19:00,
2013-06-18 18:24:00,73.7,61.2,29.95,North,360,0.0,5.0,65,0.00,,,0.00,Wunderground v.1.15,2013-06-18 23:24:00,
2013-06-18 18:30:00,73.7,60.8,29.95,North,360,0.0,5.0,64,0.00,,,0.00,Wunderground v.1.15,2013-06-18 23:30:00,
2013-06-18 18:35:00,73.5,61.0,29.96,North,360,1.0,2.0,65,0.00,,,0.00,Wunderground v.1.15,2013-06-18 23:35:00,
2013-06-18 18:41:00,73.3,61.3,29.96,NNW,344,3.0,3.0,66,0.00,,,0.00,Wunderground v.1.15,2013-06-18 23:41:00,
2013-06-18 18:46:00,73.2,60.7,29.96,NNW,344,0.0,5.0,65,0.00,,,0.00,Wunderground v.1.15,2013-06-18 23:46:00,
2013-06-18 18:52:00,73.3,60.8,29.96,NNW,344,0.0,1.0,65,0.00,,,0.00,Wunderground v.1.15,2013-06-18 23:52:00,
2013-06-18 18:57:00,73.3,60.8,29.96,North,355,0.0,3.0,65,0.00,,,0.00,Wunderground v.1.15,2013-06-18 23:57:00,
2013-06-18 19:02:00,73.3,60.8,29.95,North,355,0.0,0.0,65,0.00,,,0.00,Wunderground v.1.15,2013-06-19 00:02:00,
2013-06-18 19:07:00,73.3,62.1,29.95,North,355,0.0,0.0,68,0.00,,,0.00,Wunderground v.1.15,2013-06-19 00:07:00,
2013-06-18 19:12:00,73.2,61.6,29.95,North,355,0.0,1.0,67,0.00,,,0.00,Wunderground v.1.15,2013-06-19 00:12:00,
2013-06-18 19:17:00,73.0,61.4,29.95,North,355,1.0,1.0,67,0.00,,,0.00,Wunderground v.1.15,2013-06-19 00:17:00,
2013-06-18 19:22:00,73.2,61.6,29.95,North,355,0.0,2.0,67,0.00,,,0.00,Wunderground v.1.15,2013-06-19 00:22:00,
2013-06-18 19:27:00,73.2,61.6,29.95,North,355,1.0,2.0,67,0.00,,,0.00,Wunderground v.1.15,2013-06-19 00:27:00,
2013-06-18 19:32:00,73.2,62.0,29.94,North,355,0.0,0.0,68,0.00,,,0.00,Wunderground v.1.15,2013-06-19 00:32:00,
2013-06-18 19:37:00,72.8,60.8,29.94,North,355,0.0,2.0,66,0.00,,,0.00,Wunderground v.1.15,2013-06-19 00:37:00,
2013-06-18 19:42:00,72.7,61.1,29.94,North,355,0.0,0.0,67,0.00,,,0.00,Wunderground v.1.15,2013-06-19 00:42:00,
2013-06-18 19:47:00,72.7,62.3,29.95,North,355,0.0,0.0,70,0.00,,,0.00,Wunderground v.1.15,2013-06-19 00:47:00,
2013-06-18 19:52:00,72.3,62.0,29.95,North,355,0.0,0.0,70,0.00,,,0.00,Wunderground v.1.15,2013-06-19 00:52:00,
2013-06-18 19:57:00,72.0,62.1,29.95,North,355,0.0,0.0,71,0.00,,,0.00,Wunderground v.1.15,2013-06-19 00:57:00,
2013-06-18 20:02:00,71.6,62.1,29.95,North,355,0.0,0.0,72,0.00,,,0.00,Wunderground v.1.15,2013-06-19 01:02:00,
2013-06-18 20:08:00,71.3,62.2,29.95,North,355,0.0,0.0,73,0.00,,,0.00,Wunderground v.1.15,2013-06-19 01:08:00,
2013-06-18 20:13:00,70.9,62.6,29.95,North,355,0.0,0.0,75,0.00,,,0.00,Wunderground v.1.15,2013-06-19 01:13:00,
2013-06-18 20:18:00,70.3,62.4,29.94,North,355,0.0,0.0,76,0.00,,,0.00,Wunderground v.1.15,2013-06-19 01:18:00,
2013-06-18 20:23:00,69.8,62.3,29.94,North,355,0.0,0.0,77,0.00,,,0.00,Wunderground v.1.15,2013-06-19 01:23:00,
2013-06-18 20:28:00,68.9,61.8,29.94,North,355,0.0,0.0,78,0.00,,,0.00,Wunderground v.1.15,2013-06-19 01:28:00,
2013-06-18 20:33:00,68.4,62.0,29.96,North,355,0.0,0.0,80,0.00,,,0.00,Wunderground v.1.15,2013-06-19 01:33:00,
2013-06-18 20:38:00,67.9,62.2,29.96,North,355,0.0,0.0,82,0.00,,,0.00,Wunderground v.1.15,2013-06-19 01:38:00,
2013-06-18 20:43:00,67.4,61.7,29.96,North,355,0.0,0.0,82,0.00,,,0.00,Wunderground v.1.15,2013-06-19 01:43:00,
2013-06-18 20:48:00,67.1,61.4,29.96,North,355,0.0,0.0,82,0.00,,,0.00,Wunderground v.1.15,2013-06-19 01:48:00,
2013-06-18 20:53:00,66.9,61.9,29.96,North,355,0.0,0.0,84,0.00,,,0.00,Wunderground v.1.15,2013-06-19 01:53:00,
2013-06-18 20:58:00,66.9,61.9,29.96,North,355,0.0,0.0,84,0.00,,,0.00,Wunderground v.1.15,2013-06-19 01:58:00,
2013-06-18 21:03:00,66.8,62.1,29.95,North,355,0.0,0.0,85,0.00,,,0.00,Wunderground v.1.15,2013-06-19 02:03:00,
2013-06-18 21:08:00,66.8,62.1,29.95,North,355,0.0,0.0,85,0.00,,,0.00,Wunderground v.1.15,2013-06-19 02:08:00,
2013-06-18 21:13:00,66.3,61.7,29.95,North,355,0.0,0.0,85,0.00,,,0.00,Wunderground v.1.15,2013-06-19 02:13:00,
2013-06-18 21:18:00,66.1,61.8,29.95,North,355,0.0,0.0,86,0.00,,,0.00,Wunderground v.1.15,2013-06-19 02:18:00,
2013-06-18 21:23:00,66.0,61.7,29.95,North,355,0.0,0.0,86,0.00,,,0.00,Wunderground v.1.15,2013-06-19 02:23:00,
2013-06-18 21:28:00,65.6,61.6,29.95,North,355,0.0,0.0,87,0.00,,,0.00,Wunderground v.1.15,2013-06-19 02:28:00,
2013-06-18 21:33:00,65.5,61.5,29.95,North,355,0.0,0.0,87,0.00,,,0.00,Wunderground v.1.15,2013-06-19 02:33:00,
2013-06-18 21:38:00,65.3,61.3,29.95,North,355,0.0,0.0,87,0.00,,,0.00,Wunderground v.1.15,2013-06-19 02:38:00,
2013-06-18 21:43:00,65.2,61.6,29.95,North,355,0.0,0.0,88,0.00,,,0.00,Wunderground v.1.15,2013-06-19 02:43:00,
2013-06-18 21:48:00,65.0,61.7,29.95,North,355,0.0,0.0,89,0.00,,,0.00,Wunderground v.1.15,2013-06-19 02:48:00,
2013-06-18 21:53:00,65.0,61.7,29.95,North,355,0.0,0.0,89,0.00,,,0.00,Wunderground v.1.15,2013-06-19 02:53:00,
2013-06-18 21:58:00,65.0,61.7,29.95,North,355,0.0,0.0,89,0.00,,,0.00,Wunderground v.1.15,2013-06-19 02:58:00,
2013-06-18 22:03:00,65.0,62.0,29.95,North,355,0.0,0.0,90,0.00,,,0.00,Wunderground v.1.15,2013-06-19 03:03:00,
2013-06-18 22:08:00,64.7,61.7,29.95,North,355,0.0,0.0,90,0.00,,,0.00,Wunderground v.1.15,2013-06-19 03:08:00,
2013-06-18 22:13:00,64.7,61.7,29.95,North,355,0.0,0.0,90,0.00,,,0.00,Wunderground v.1.15,2013-06-19 03:13:00,
2013-06-18 22:18:00,64.3,61.0,29.95,North,355,0.0,0.0,89,0.00,,,0.00,Wunderground v.1.15,2013-06-19 03:18:00,
2013-06-18 22:23:00,64.2,61.2,29.95,North,355,0.0,0.0,90,0.00,,,0.00,Wunderground v.1.15,2013-06-19 03:23:00,
2013-06-18 22:28:00,64.0,61.0,29.95,North,355,0.0,0.0,90,0.00,,,0.00,Wunderground v.1.15,2013-06-19 03:28:00,
2013-06-18 22:33:00,63.9,60.9,29.94,North,355,0.0,0.0,90,0.00,,,0.00,Wunderground v.1.15,2013-06-19 03:33:00,
2013-06-18 22:38:00,63.9,60.9,29.94,North,355,0.0,0.0,90,0.00,,,0.00,Wunderground v.1.15,2013-06-19 03:38:00,
2013-06-18 22:43:00,63.7,61.0,29.94,North,355,0.0,0.0,91,0.00,,,0.00,Wunderground v.1.15,2013-06-19 03:43:00,
2013-06-18 22:48:00,63.7,61.0,29.94,North,355,0.0,0.0,91,0.00,,,0.00,Wunderground v.1.15,2013-06-19 03:48:00,
2013-06-18 22:53:00,63.9,61.5,29.94,North,355,0.0,0.0,92,0.00,,,0.00,Wunderground v.1.15,2013-06-19 03:53:00,
2013-06-18 22:58:00,63.9,61.5,29.94,North,355,0.0,0.0,92,0.00,,,0.00,Wunderground v.1.15,2013-06-19 03:58:00,
2013-06-18 23:01:00,63.9,61.5,29.94,North,355,0.0,0.0,92,0.00,,,0.00,Wunderground v.1.15,2013-06-19 04:01:00,
2013-06-18 23:02:00,63.9,61.5,29.93,North,355,0.0,0.0,92,0.00,,,0.00,Wunderground v.1.15,2013-06-19 04:02:00,
2013-06-18 23:07:00,63.9,61.5,29.93,North,355,0.0,0.0,92,0.00,,,0.00,Wunderground v.1.15,2013-06-19 04:07:00,
2013-06-18 23:12:00,63.7,61.3,29.93,North,355,0.0,0.0,92,0.00,,,0.00,Wunderground v.1.15,2013-06-19 04:12:00,
2013-06-18 23:17:00,63.7,61.3,29.94,North,355,0.0,0.0,92,0.00,,,0.00,Wunderground v.1.15,2013-06-19 04:17:00,
2013-06-18 23:22:00,63.1,60.4,29.94,North,355,0.0,0.0,91,0.00,,,0.00,Wunderground v.1.15,2013-06-19 04:22:00,
2013-06-18 23:27:00,62.9,60.5,29.94,North,355,0.0,0.0,92,0.00,,,0.00,Wunderground v.1.15,2013-06-19 04:27:00,
2013-06-18 23:32:00,62.7,60.3,29.94,North,355,0.0,0.0,92,0.00,,,0.00,Wunderground v.1.15,2013-06-19 04:32:00,
2013-06-18 23:37:00,62.7,60.3,29.94,North,355,0.0,0.0,92,0.00,,,0.00,Wunderground v.1.15,2013-06-19 04:37:00,
2013-06-18 23:42:00,62.7,60.3,29.94,North,355,0.0,0.0,92,0.00,,,0.00,Wunderground v.1.15,2013-06-19 04:42:00,
2013-06-18 23:47:00,62.6,60.2,29.94,North,355,0.0,0.0,92,0.00,,,0.00,Wunderground v.1.15,2013-06-19 04:47:00,
2013-06-18 23:52:00,62.6,60.2,29.94,North,355,0.0,0.0,92,0.00,,,0.00,Wunderground v.1.15,2013-06-19 04:52:00,
2013-06-18 23:57:00,62.1,59.7,29.94,North,355,0.0,0.0,92,0.00,,,0.00,Wunderground v.1.15,2013-06-19 04:57:00,